This is the latest recevied weather packets stored in our database for station/object OE-11061. If no packets are shown the sender has not sent any weather packets the latest 10 day(s).
| Time | Temp. | Humidity | Pressure | Rain* | Wind** | Luminosity | Snow |
|---|---|---|---|---|---|---|---|
| 1787816493 | 22.22° C | 72% | 1014.5 hPa | 0 mm | - | 441 W/m² | - |
| 1787816120 | 21.67° C | 74% | 1014.5 hPa | 0 mm | - | 403 W/m² | - |
| 1787815518 | 21.11° C | 74% | 1014.4 hPa | 0 mm | - | 388 W/m² | - |
| 1787814694 | 20.56° C | 76% | 1014.7 hPa | 0 mm | - | 388 W/m² | - |
| 1787813721 | 17.22° C | 91% | 1015.4 hPa | 0 mm | - | 321 W/m² | - |
| 1787812894 | 16.11° C | 94% | 1015.6 hPa | 0 mm | - | 217 W/m² | - |
| 1787812521 | 16.11° C | 95% | 1015.7 hPa | 0 mm | - | 194 W/m² | - |
| 1787811921 | 15.56° C | 95% | 1015.9 hPa | 0 mm | - | 179 W/m² | - |
| 1787811333 | 15.56° C | 96% | 1015.9 hPa | 0 mm | - | 127 W/m² | - |
| 1787810721 | 15° C | 95% | 1015.9 hPa | 0 mm | - | 75 W/m² | - |
| 1787810121 | 15° C | 95% | 1016.1 hPa | 0 mm | - | 75 W/m² | - |
| 1787809294 | 15° C | 94% | 1016.1 hPa | 0 mm | - | 75 W/m² | - |
| 1787808921 | 15° C | 94% | 1016.1 hPa | 0 mm | - | 105 W/m² | - |
| 1787808321 | 15° C | 95% | 1016.1 hPa | 0 mm | - | 90 W/m² | - |
| 1787807494 | 14.44° C | 95% | 1016.1 hPa | 0 mm | - | 75 W/m² | - |
| 1787807121 | 14.44° C | 96% | 1016.2 hPa | 0 mm | - | 60 W/m² | - |
| 1787806521 | 14.44° C | 96% | 1016.1 hPa | 0 mm | - | 30 W/m² | - |
| 1787805693 | 13.89° C | 96% | 1016.1 hPa | 0 mm | - | 7 W/m² | - |
| 1787805321 | 13.89° C | 96% | 1016.2 hPa | 0 mm | - | 0 W/m² | - |
| 1787804721 | 13.89° C | 96% | 1016.3 hPa | 0 mm | - | 0 W/m² | - |
| 1787803894 | 13.89° C | 95% | 1016.3 hPa | 0 mm | - | 0 W/m² | - |
| 1787803521 | 13.33° C | 95% | 1016.4 hPa | 0 mm | - | 0 W/m² | - |
| 1787802921 | 13.89° C | 95% | 1016.3 hPa | 0 mm | - | 0 W/m² | - |
| 1787802321 | 13.89° C | 96% | 1016.2 hPa | 0 mm | - | 0 W/m² | - |
| 1787801721 | 13.89° C | 95% | 1016.1 hPa | 0 mm | - | 0 W/m² | - |
* Rain latest hour (hover to see other rain measurements)
** Current wind speed in m/s (hover to see current wind gust speed)